Hawarden, United Kingdom

10:09 PM GMT on February 10, 2016 (GMT +0000)
Hawarden | | Change Station
CLOSE
Current Station
Airport
Location: Hawarden,
Elevation: 33 ft
Nearby Weather Stations

Elev 33 ft 53.17 °N, 2.99 °W | Updated 19 minutes ago

Partly Cloudy
Partly Cloudy
39 °F
Feels Like 34 °F
N
8
Wind Variable Wind from WSW

Today
High -- | Low -- °F
--% Chance of Precip.
Yesterday
High -- | Low -- °F
Precip. -- in
Pressure 29.59 in
Visibility 6.2 miles
Clouds Few 3000 ft
Windchill 34 °F
Dew Point 32 °F
Humidity 75%
Rainfall 0.00 in
Snow Depth Not available.
7:40 AM 5:12 PM
Waxing Crescent, 7% visible
METAR EGNR 102150Z 24007KT 9999 FEW030 04/00 Q1002
Pressure 29.59 in
Visibility 6.2 miles
Clouds Few 3000 ft
Windchill 34 °F
Dew Point 32 °F
Humidity 75%
Rainfall 0.00 in
Snow Depth Not available.
7:40 AM 5:12 PM
Waxing Crescent, 7% visible
METAR EGNR 102150Z 24007KT 9999 FEW030 04/00 Q1002

10-Day Weather Forecast

Almanac

Astronomy

Feb. 10, 2016 Rise Set
Actual Time
Civil Twilight
Nautical Twilight
Astronomical Twilight
Moon
Length of Visible Light
Length of Day
Tomorrow will be .
, % of the Moon is Illuminated

Today's Extremes

Country Highs Country Lows

Community

WunderPhotos

Upload Photos

1,891,959 photos uploaded!

WunderBlog® & News

Nearby

Air Quality

  Air Quality AQ Index Pollutant
Not available.

Snow Depth

Station Depth Elevation

Earthquake Activity

City Distance Mag. Time & Date
Minimum magnitude displayed is 2.5.

Coastal Water Temperatures

Place Temperature

Stations

Nearby Weather Stations

Station Location Temp. Windchill Dew Point Humidity Wind Precip. Elev Updated Type